sensor_id;sensor_type;location;lat;lon;timestamp;temperature;humidity
65692;DHT22;52411;52.716;6.696;2023-03-01T00:01:18;-0.80;99.90
65692;DHT22;52411;52.716;6.696;2023-03-01T00:03:44;-0.90;99.90
65692;DHT22;52411;52.716;6.696;2023-03-01T00:06:10;-0.90;99.90
65692;DHT22;52411;52.716;6.696;2023-03-01T00:08:35;-1.00;99.90
65692;DHT22;52411;52.716;6.696;2023-03-01T00:11:17;-1.00;99.90
65692;DHT22;52411;52.716;6.696;2023-03-01T00:13:44;-1.00;99.90
65692;DHT22;52411;52.716;6.696;2023-03-01T00:16:14;-0.90;99.90
65692;DHT22;52411;52.716;6.696;2023-03-01T00:18:40;-0.90;99.90
65692;DHT22;52411;52.716;6.696;2023-03-01T00:21:05;-0.90;99.90
65692;DHT22;52411;52.716;6.696;2023-03-01T00:23:34;-0.90;99.90
65692;DHT22;52411;52.716;6.696;2023-03-01T00:26:00;-1.00;99.90
65692;DHT22;52411;52.716;6.696;2023-03-01T00:28:26;-1.10;99.90
65692;DHT22;52411;52.716;6.696;2023-03-01T00:30:52;-1.10;99.90
65692;DHT22;52411;52.716;6.696;2023-03-01T00:33:18;-1.20;99.90
65692;DHT22;52411;52.716;6.696;2023-03-01T00:35:43;-1.20;99.90
65692;DHT22;52411;52.716;6.696;2023-03-01T00:38:09;-1.30;99.90
65692;DHT22;52411;52.716;6.696;2023-03-01T00:40:35;-1.30;99.90
65692;DHT22;52411;52.716;6.696;2023-03-01T00:43:02;-1.40;99.90
65692;DHT22;52411;52.716;6.696;2023-03-01T00:45:28;-1.50;99.90
65692;DHT22;52411;52.716;6.696;2023-03-01T00:47:56;-1.60;99.90
65692;DHT22;52411;52.716;6.696;2023-03-01T00:50:21;-1.50;99.90
65692;DHT22;52411;52.716;6.696;2023-03-01T00:52:50;-1.40;99.90
65692;DHT22;52411;52.716;6.696;2023-03-01T00:55:17;-1.40;99.90
65692;DHT22;52411;52.716;6.696;2023-03-01T00:57:42;-1.40;99.90
65692;DHT22;52411;52.716;6.696;2023-03-01T01:00:08;-1.40;99.90
65692;DHT22;52411;52.716;6.696;2023-03-01T01:02:35;-1.40;99.90
65692;DHT22;52411;52.716;6.696;2023-03-01T01:05:00;-1.40;99.90
65692;DHT22;52411;52.716;6.696;2023-03-01T01:07:26;-1.40;99.90
65692;DHT22;52411;52.716;6.696;2023-03-01T01:09:52;-1.40;99.90
65692;DHT22;52411;52.716;6.696;2023-03-01T01:12:17;-1.50;99.90
65692;DHT22;52411;52.716;6.696;2023-03-01T01:14:43;-1.60;99.90
65692;DHT22;52411;52.716;6.696;2023-03-01T01:17:09;-1.60;99.90
65692;DHT22;52411;52.716;6.696;2023-03-01T01:19:35;-1.60;99.90
65692;DHT22;52411;52.716;6.696;2023-03-01T01:22:00;-1.60;99.90
65692;DHT22;52411;52.716;6.696;2023-03-01T01:24:26;-1.60;99.90
65692;DHT22;52411;52.716;6.696;2023-03-01T01:26:51;-1.60;99.90
65692;DHT22;52411;52.716;6.696;2023-03-01T01:29:17;-1.60;99.90
65692;DHT22;52411;52.716;6.696;2023-03-01T01:31:43;-1.60;99.90
65692;DHT22;52411;52.716;6.696;2023-03-01T01:34:14;-1.60;99.90
65692;DHT22;52411;52.716;6.696;2023-03-01T01:36:40;-1.70;99.90
65692;DHT22;52411;52.716;6.696;2023-03-01T01:39:06;-1.70;99.90
65692;DHT22;52411;52.716;6.696;2023-03-01T01:41:33;-1.70;99.90
65692;DHT22;52411;52.716;6.696;2023-03-01T01:44:28;-1.70;99.90
65692;DHT22;52411;52.716;6.696;2023-03-01T01:47:16;-1.80;99.90
65692;DHT22;52411;52.716;6.696;2023-03-01T01:49:56;-1.80;99.90
65692;DHT22;52411;52.716;6.696;2023-03-01T01:52:26;-1.80;99.90
65692;DHT22;52411;52.716;6.696;2023-03-01T01:55:08;-2.00;99.90
65692;DHT22;52411;52.716;6.696;2023-03-01T01:58:01;-2.10;99.90
65692;DHT22;52411;52.716;6.696;2023-03-01T02:00:29;-2.10;99.90
65692;DHT22;52411;52.716;6.696;2023-03-01T02:02:57;-2.20;99.90
65692;DHT22;52411;52.716;6.696;2023-03-01T02:06:12;-2.30;99.90
65692;DHT22;52411;52.716;6.696;2023-03-01T02:08:19;-2.30;99.90
65692;DHT22;52411;52.716;6.696;2023-03-01T02:10:46;-2.40;99.90
65692;DHT22;52411;52.716;6.696;2023-03-01T02:13:13;-2.70;99.90
65692;DHT22;52411;52.716;6.696;2023-03-01T02:15:40;-2.80;99.90
65692;DHT22;52411;52.716;6.696;2023-03-01T02:18:07;-3.00;99.90
65692;DHT22;52411;52.716;6.696;2023-03-01T02:23:30;-3.10;99.90
65692;DHT22;52411;52.716;6.696;2023-03-01T02:26:40;-3.20;99.90
65692;DHT22;52411;52.716;6.696;2023-03-01T02:28:57;-3.20;99.90
65692;DHT22;52411;52.716;6.696;2023-03-01T02:31:23;-3.20;99.90
65692;DHT22;52411;52.716;6.696;2023-03-01T02:34:18;-3.10;99.90
65692;DHT22;52411;52.716;6.696;2023-03-01T02:36:52;-3.10;99.90
65692;DHT22;52411;52.716;6.696;2023-03-01T02:39:24;-3.10;99.90
65692;DHT22;52411;52.716;6.696;2023-03-01T02:41:53;-3.10;99.90
65692;DHT22;52411;52.716;6.696;2023-03-01T02:44:20;-3.00;99.90
65692;DHT22;52411;52.716;6.696;2023-03-01T02:46:52;-3.10;99.90
65692;DHT22;52411;52.716;6.696;2023-03-01T02:49:26;-3.00;99.90
65692;DHT22;52411;52.716;6.696;2023-03-01T02:52:21;-3.10;99.90
65692;DHT22;52411;52.716;6.696;2023-03-01T02:57:13;-3.10;99.90
65692;DHT22;52411;52.716;6.696;2023-03-01T02:59:40;-3.10;99.90
65692;DHT22;52411;52.716;6.696;2023-03-01T03:02:18;-3.10;99.90
65692;DHT22;52411;52.716;6.696;2023-03-01T03:05:02;-3.10;99.90
65692;DHT22;52411;52.716;6.696;2023-03-01T03:07:28;-3.00;99.90
65692;DHT22;52411;52.716;6.696;2023-03-01T03:09:53;-2.90;99.90
65692;DHT22;52411;52.716;6.696;2023-03-01T03:12:19;-2.90;99.90
65692;DHT22;52411;52.716;6.696;2023-03-01T03:14:44;-2.80;99.90
65692;DHT22;52411;52.716;6.696;2023-03-01T03:17:10;-2.80;99.90
65692;DHT22;52411;52.716;6.696;2023-03-01T03:19:35;-2.80;99.90
65692;DHT22;52411;52.716;6.696;2023-03-01T03:22:01;-2.70;99.90
65692;DHT22;52411;52.716;6.696;2023-03-01T03:24:27;-2.70;99.90
65692;DHT22;52411;52.716;6.696;2023-03-01T03:27:06;-2.70;99.90
65692;DHT22;52411;52.716;6.696;2023-03-01T03:29:32;-2.70;99.90
65692;DHT22;52411;52.716;6.696;2023-03-01T03:31:57;-2.70;99.90
65692;DHT22;52411;52.716;6.696;2023-03-01T03:34:23;-2.80;99.90
65692;DHT22;52411;52.716;6.696;2023-03-01T03:36:53;-2.90;99.90
65692;DHT22;52411;52.716;6.696;2023-03-01T03:39:22;-2.90;99.90
65692;DHT22;52411;52.716;6.696;2023-03-01T03:41:48;-2.80;99.90
65692;DHT22;52411;52.716;6.696;2023-03-01T03:44:14;-2.80;99.90
65692;DHT22;52411;52.716;6.696;2023-03-01T03:46:39;-2.80;99.90
65692;DHT22;52411;52.716;6.696;2023-03-01T03:49:05;-2.80;99.90
65692;DHT22;52411;52.716;6.696;2023-03-01T03:51:31;-2.90;99.90
65692;DHT22;52411;52.716;6.696;2023-03-01T03:53:56;-2.90;99.90
65692;DHT22;52411;52.716;6.696;2023-03-01T03:56:22;-3.00;99.90
65692;DHT22;52411;52.716;6.696;2023-03-01T03:58:51;-3.00;99.90
65692;DHT22;52411;52.716;6.696;2023-03-01T04:01:17;-3.00;99.90
65692;DHT22;52411;52.716;6.696;2023-03-01T04:03:43;-3.10;99.90
65692;DHT22;52411;52.716;6.696;2023-03-01T04:06:13;-3.10;99.90
65692;DHT22;52411;52.716;6.696;2023-03-01T04:08:39;-3.10;99.90
65692;DHT22;52411;52.716;6.696;2023-03-01T04:11:05;-3.10;99.90
65692;DHT22;52411;52.716;6.696;2023-03-01T04:13:50;-3.10;99.90
65692;DHT22;52411;52.716;6.696;2023-03-01T04:16:16;-3.10;99.90
65692;DHT22;52411;52.716;6.696;2023-03-01T04:18:43;-3.10;99.90
65692;DHT22;52411;52.716;6.696;2023-03-01T04:21:09;-3.20;99.90
65692;DHT22;52411;52.716;6.696;2023-03-01T04:23:35;-3.30;99.90
65692;DHT22;52411;52.716;6.696;2023-03-01T04:26:01;-3.40;99.90
65692;DHT22;52411;52.716;6.696;2023-03-01T04:28:28;-3.30;99.90
65692;DHT22;52411;52.716;6.696;2023-03-01T04:30:55;-3.30;99.90
65692;DHT22;52411;52.716;6.696;2023-03-01T04:33:21;-3.30;99.90
65692;DHT22;52411;52.716;6.696;2023-03-01T04:35:47;-3.20;99.90
65692;DHT22;52411;52.716;6.696;2023-03-01T04:38:15;-3.10;99.90
65692;DHT22;52411;52.716;6.696;2023-03-01T04:40:41;-3.10;99.90
65692;DHT22;52411;52.716;6.696;2023-03-01T04:43:09;-3.10;99.90
65692;DHT22;52411;52.716;6.696;2023-03-01T04:45:35;-3.10;99.90
65692;DHT22;52411;52.716;6.696;2023-03-01T04:48:01;-3.10;99.90
65692;DHT22;52411;52.716;6.696;2023-03-01T04:50:27;-3.00;99.90
65692;DHT22;52411;52.716;6.696;2023-03-01T04:52:53;-3.10;99.90
65692;DHT22;52411;52.716;6.696;2023-03-01T04:55:19;-3.10;99.90
65692;DHT22;52411;52.716;6.696;2023-03-01T04:57:45;-3.10;99.90
65692;DHT22;52411;52.716;6.696;2023-03-01T05:00:12;-3.20;99.90
65692;DHT22;52411;52.716;6.696;2023-03-01T05:02:48;-3.20;99.90
65692;DHT22;52411;52.716;6.696;2023-03-01T05:05:15;-3.20;99.90
65692;DHT22;52411;52.716;6.696;2023-03-01T05:07:40;-3.20;99.90
65692;DHT22;52411;52.716;6.696;2023-03-01T05:10:06;-3.20;99.90
65692;DHT22;52411;52.716;6.696;2023-03-01T05:12:32;-3.30;99.90
65692;DHT22;52411;52.716;6.696;2023-03-01T05:14:58;-3.30;99.90
65692;DHT22;52411;52.716;6.696;2023-03-01T05:17:23;-3.30;99.90
65692;DHT22;52411;52.716;6.696;2023-03-01T05:19:49;-3.30;99.90
65692;DHT22;52411;52.716;6.696;2023-03-01T05:22:15;-3.30;99.90
65692;DHT22;52411;52.716;6.696;2023-03-01T05:24:41;-3.40;99.90
65692;DHT22;52411;52.716;6.696;2023-03-01T05:27:07;-3.40;99.90
65692;DHT22;52411;52.716;6.696;2023-03-01T05:29:33;-3.40;99.90
65692;DHT22;52411;52.716;6.696;2023-03-01T05:32:01;-3.50;99.90
65692;DHT22;52411;52.716;6.696;2023-03-01T05:34:30;-3.60;99.90
65692;DHT22;52411;52.716;6.696;2023-03-01T05:36:56;-3.60;99.90
65692;DHT22;52411;52.716;6.696;2023-03-01T05:39:23;-3.50;99.90
65692;DHT22;52411;52.716;6.696;2023-03-01T05:41:57;-3.40;99.90
65692;DHT22;52411;52.716;6.696;2023-03-01T05:44:24;-3.40;99.90
65692;DHT22;52411;52.716;6.696;2023-03-01T05:46:50;-3.30;99.90
65692;DHT22;52411;52.716;6.696;2023-03-01T05:49:16;-3.30;99.90
65692;DHT22;52411;52.716;6.696;2023-03-01T05:51:47;-3.20;99.90
65692;DHT22;52411;52.716;6.696;2023-03-01T05:54:12;-3.20;99.90
65692;DHT22;52411;52.716;6.696;2023-03-01T05:56:38;-3.20;99.90
65692;DHT22;52411;52.716;6.696;2023-03-01T05:59:04;-3.30;99.90
65692;DHT22;52411;52.716;6.696;2023-03-01T06:01:34;-3.20;99.90
65692;DHT22;52411;52.716;6.696;2023-03-01T06:04:00;-3.30;99.90
65692;DHT22;52411;52.716;6.696;2023-03-01T06:06:26;-3.30;99.90
65692;DHT22;52411;52.716;6.696;2023-03-01T06:08:53;-3.30;99.90
65692;DHT22;52411;52.716;6.696;2023-03-01T06:11:19;-3.30;99.90
65692;DHT22;52411;52.716;6.696;2023-03-01T06:13:45;-3.30;99.90
65692;DHT22;52411;52.716;6.696;2023-03-01T06:16:12;-3.30;99.90
65692;DHT22;52411;52.716;6.696;2023-03-01T06:18:38;-3.30;99.90
65692;DHT22;52411;52.716;6.696;2023-03-01T06:21:05;-3.30;99.90
65692;DHT22;52411;52.716;6.696;2023-03-01T06:23:32;-3.30;99.90
65692;DHT22;52411;52.716;6.696;2023-03-01T06:25:57;-3.40;99.90
65692;DHT22;52411;52.716;6.696;2023-03-01T06:28:23;-3.50;99.90
65692;DHT22;52411;52.716;6.696;2023-03-01T06:30:50;-3.50;99.90
65692;DHT22;52411;52.716;6.696;2023-03-01T06:33:17;-3.60;99.90
65692;DHT22;52411;52.716;6.696;2023-03-01T06:35:46;-3.60;99.90
65692;DHT22;52411;52.716;6.696;2023-03-01T06:38:11;-3.60;99.90
65692;DHT22;52411;52.716;6.696;2023-03-01T06:40:40;-3.60;99.90
65692;DHT22;52411;52.716;6.696;2023-03-01T06:43:06;-3.60;99.90
65692;DHT22;52411;52.716;6.696;2023-03-01T06:45:33;-3.70;99.90
65692;DHT22;52411;52.716;6.696;2023-03-01T06:48:04;-3.60;99.90
65692;DHT22;52411;52.716;6.696;2023-03-01T06:50:30;-3.70;99.90
65692;DHT22;52411;52.716;6.696;2023-03-01T06:52:56;-3.70;99.90
65692;DHT22;52411;52.716;6.696;2023-03-01T06:55:22;-3.60;99.90
65692;DHT22;52411;52.716;6.696;2023-03-01T06:57:48;-3.60;99.90
65692;DHT22;52411;52.716;6.696;2023-03-01T07:00:14;-3.50;99.90
65692;DHT22;52411;52.716;6.696;2023-03-01T07:02:39;-3.40;99.90
65692;DHT22;52411;52.716;6.696;2023-03-01T07:05:05;-3.50;99.90
65692;DHT22;52411;52.716;6.696;2023-03-01T07:07:31;-3.30;99.90
65692;DHT22;52411;52.716;6.696;2023-03-01T07:09:57;-3.30;99.90
65692;DHT22;52411;52.716;6.696;2023-03-01T07:12:22;-3.20;99.90
65692;DHT22;52411;52.716;6.696;2023-03-01T07:14:48;-3.20;99.90
65692;DHT22;52411;52.716;6.696;2023-03-01T07:17:13;-3.20;99.90
65692;DHT22;52411;52.716;6.696;2023-03-01T07:19:39;-2.90;99.90
65692;DHT22;52411;52.716;6.696;2023-03-01T07:22:05;-2.80;99.90
65692;DHT22;52411;52.716;6.696;2023-03-01T07:24:33;-2.70;99.90
65692;DHT22;52411;52.716;6.696;2023-03-01T07:26:59;-2.70;99.90
65692;DHT22;52411;52.716;6.696;2023-03-01T07:29:24;-2.60;99.90
65692;DHT22;52411;52.716;6.696;2023-03-01T07:31:50;-2.60;99.90
65692;DHT22;52411;52.716;6.696;2023-03-01T07:34:15;-2.60;99.90
65692;DHT22;52411;52.716;6.696;2023-03-01T07:36:41;-2.60;99.90
65692;DHT22;52411;52.716;6.696;2023-03-01T07:39:09;-2.50;99.90
65692;DHT22;52411;52.716;6.696;2023-03-01T07:41:35;-2.40;99.90
65692;DHT22;52411;52.716;6.696;2023-03-01T07:44:01;-2.40;99.90
65692;DHT22;52411;52.716;6.696;2023-03-01T07:46:26;-2.30;99.90
65692;DHT22;52411;52.716;6.696;2023-03-01T07:48:52;-2.30;99.90
65692;DHT22;52411;52.716;6.696;2023-03-01T07:51:18;-2.20;99.90
65692;DHT22;52411;52.716;6.696;2023-03-01T07:53:46;-2.10;99.90
65692;DHT22;52411;52.716;6.696;2023-03-01T07:56:13;-2.00;99.90
65692;DHT22;52411;52.716;6.696;2023-03-01T07:58:43;-1.90;99.90
65692;DHT22;52411;52.716;6.696;2023-03-01T08:01:13;-1.80;99.90
65692;DHT22;52411;52.716;6.696;2023-03-01T08:03:39;-1.80;99.90
65692;DHT22;52411;52.716;6.696;2023-03-01T08:06:07;-1.60;99.90
65692;DHT22;52411;52.716;6.696;2023-03-01T08:08:33;-1.50;99.90
65692;DHT22;52411;52.716;6.696;2023-03-01T08:11:00;-1.40;99.90
65692;DHT22;52411;52.716;6.696;2023-03-01T08:13:28;-1.20;99.90
65692;DHT22;52411;52.716;6.696;2023-03-01T08:15:53;-1.10;99.90
65692;DHT22;52411;52.716;6.696;2023-03-01T08:18:20;-1.00;99.90
65692;DHT22;52411;52.716;6.696;2023-03-01T08:20:46;-0.90;99.90
65692;DHT22;52411;52.716;6.696;2023-03-01T08:23:12;-0.80;99.90
65692;DHT22;52411;52.716;6.696;2023-03-01T08:25:38;-0.80;99.90
65692;DHT22;52411;52.716;6.696;2023-03-01T08:28:04;-0.60;99.90
65692;DHT22;52411;52.716;6.696;2023-03-01T08:30:29;-0.50;99.90
65692;DHT22;52411;52.716;6.696;2023-03-01T08:32:55;-0.40;99.90
65692;DHT22;52411;52.716;6.696;2023-03-01T08:35:21;-0.30;99.90
65692;DHT22;52411;52.716;6.696;2023-03-01T08:37:46;-0.20;99.90
65692;DHT22;52411;52.716;6.696;2023-03-01T08:40:13;-0.10;99.90
65692;DHT22;52411;52.716;6.696;2023-03-01T08:42:40;-0.10;99.90
65692;DHT22;52411;52.716;6.696;2023-03-01T08:45:07;0.10;99.90
65692;DHT22;52411;52.716;6.696;2023-03-01T08:47:33;0.10;99.90
65692;DHT22;52411;52.716;6.696;2023-03-01T08:49:59;0.20;99.90
65692;DHT22;52411;52.716;6.696;2023-03-01T08:52:25;0.30;99.90
65692;DHT22;52411;52.716;6.696;2023-03-01T08:54:52;0.40;99.90
65692;DHT22;52411;52.716;6.696;2023-03-01T08:57:18;0.50;99.90
65692;DHT22;52411;52.716;6.696;2023-03-01T08:59:44;0.60;99.90
65692;DHT22;52411;52.716;6.696;2023-03-01T09:02:16;0.70;99.90
65692;DHT22;52411;52.716;6.696;2023-03-01T09:04:42;0.70;99.90
65692;DHT22;52411;52.716;6.696;2023-03-01T09:07:08;0.80;99.90
65692;DHT22;52411;52.716;6.696;2023-03-01T09:09:34;1.00;99.90
65692;DHT22;52411;52.716;6.696;2023-03-01T09:12:00;1.00;99.90
65692;DHT22;52411;52.716;6.696;2023-03-01T09:14:26;1.10;99.90
65692;DHT22;52411;52.716;6.696;2023-03-01T09:16:51;1.30;99.90
65692;DHT22;52411;52.716;6.696;2023-03-01T09:19:17;1.40;99.90
65692;DHT22;52411;52.716;6.696;2023-03-01T09:21:43;1.50;99.90
65692;DHT22;52411;52.716;6.696;2023-03-01T09:24:21;1.60;99.90
65692;DHT22;52411;52.716;6.696;2023-03-01T09:26:48;1.70;99.90
65692;DHT22;52411;52.716;6.696;2023-03-01T09:29:14;1.80;99.90
65692;DHT22;52411;52.716;6.696;2023-03-01T09:31:40;2.00;99.90
65692;DHT22;52411;52.716;6.696;2023-03-01T09:34:07;2.10;99.90
65692;DHT22;52411;52.716;6.696;2023-03-01T09:36:33;2.20;99.90
65692;DHT22;52411;52.716;6.696;2023-03-01T09:38:59;2.30;99.90
65692;DHT22;52411;52.716;6.696;2023-03-01T09:41:45;2.60;99.90
65692;DHT22;52411;52.716;6.696;2023-03-01T09:44:22;2.70;99.90
65692;DHT22;52411;52.716;6.696;2023-03-01T09:46:51;2.80;99.90
65692;DHT22;52411;52.716;6.696;2023-03-01T09:49:26;2.90;99.90
65692;DHT22;52411;52.716;6.696;2023-03-01T09:51:59;3.00;99.90
65692;DHT22;52411;52.716;6.696;2023-03-01T09:54:26;3.10;99.90
65692;DHT22;52411;52.716;6.696;2023-03-01T10:00:43;3.30;99.90
65692;DHT22;52411;52.716;6.696;2023-03-01T10:08:38;3.70;99.90
65692;DHT22;52411;52.716;6.696;2023-03-01T10:16:36;3.80;99.90
65692;DHT22;52411;52.716;6.696;2023-03-01T10:19:05;3.90;99.90
65692;DHT22;52411;52.716;6.696;2023-03-01T10:21:38;3.90;99.90
65692;DHT22;52411;52.716;6.696;2023-03-01T10:24:15;4.00;99.90
65692;DHT22;52411;52.716;6.696;2023-03-01T10:29:16;4.20;99.90
65692;DHT22;52411;52.716;6.696;2023-03-01T10:31:50;4.20;99.90
65692;DHT22;52411;52.716;6.696;2023-03-01T10:34:25;4.20;99.90
65692;DHT22;52411;52.716;6.696;2023-03-01T10:36:56;4.20;99.90
65692;DHT22;52411;52.716;6.696;2023-03-01T10:39:24;4.20;99.90
65692;DHT22;52411;52.716;6.696;2023-03-01T10:42:03;4.40;99.90
65692;DHT22;52411;52.716;6.696;2023-03-01T10:44:47;4.40;99.90
65692;DHT22;52411;52.716;6.696;2023-03-01T10:52:23;4.70;99.90
65692;DHT22;52411;52.716;6.696;2023-03-01T10:54:58;4.70;99.90
65692;DHT22;52411;52.716;6.696;2023-03-01T10:57:36;4.70;99.90
65692;DHT22;52411;52.716;6.696;2023-03-01T11:03:02;4.80;99.90
65692;DHT22;52411;52.716;6.696;2023-03-01T11:05:29;4.80;99.90
65692;DHT22;52411;52.716;6.696;2023-03-01T11:08:00;5.00;99.90
65692;DHT22;52411;52.716;6.696;2023-03-01T11:10:35;5.00;99.90
65692;DHT22;52411;52.716;6.696;2023-03-01T11:13:18;5.10;99.90
65692;DHT22;52411;52.716;6.696;2023-03-01T11:16:03;5.10;99.90
65692;DHT22;52411;52.716;6.696;2023-03-01T11:18:30;5.20;99.90
65692;DHT22;52411;52.716;6.696;2023-03-01T11:20:56;5.10;99.90
65692;DHT22;52411;52.716;6.696;2023-03-01T11:23:24;5.20;99.90
65692;DHT22;52411;52.716;6.696;2023-03-01T11:26:02;5.40;99.90
65692;DHT22;52411;52.716;6.696;2023-03-01T11:28:30;5.50;99.90
65692;DHT22;52411;52.716;6.696;2023-03-01T11:31:03;5.50;99.90
65692;DHT22;52411;52.716;6.696;2023-03-01T11:38:35;5.70;99.90
65692;DHT22;52411;52.716;6.696;2023-03-01T11:41:10;5.80;99.90
65692;DHT22;52411;52.716;6.696;2023-03-01T11:49:12;5.90;99.90
65692;DHT22;52411;52.716;6.696;2023-03-01T12:05:23;6.30;99.90
65692;DHT22;52411;52.716;6.696;2023-03-01T12:08:14;6.40;99.90
65692;DHT22;52411;52.716;6.696;2023-03-01T12:16:21;6.50;99.90
65692;DHT22;52411;52.716;6.696;2023-03-01T12:19:20;6.60;99.90
65692;DHT22;52411;52.716;6.696;2023-03-01T12:22:20;6.70;99.90
65692;DHT22;52411;52.716;6.696;2023-03-01T12:25:25;6.80;99.90
65692;DHT22;52411;52.716;6.696;2023-03-01T12:28:13;6.80;99.90
65692;DHT22;52411;52.716;6.696;2023-03-01T12:33:42;6.90;99.90
65692;DHT22;52411;52.716;6.696;2023-03-01T12:41:51;7.00;99.90
65692;DHT22;52411;52.716;6.696;2023-03-01T12:50:23;7.10;99.90
65692;DHT22;52411;52.716;6.696;2023-03-01T12:52:53;7.20;99.90
65692;DHT22;52411;52.716;6.696;2023-03-01T12:55:31;7.20;99.90
65692;DHT22;52411;52.716;6.696;2023-03-01T13:01:04;7.50;99.90
65692;DHT22;52411;52.716;6.696;2023-03-01T13:06:29;7.50;99.50
65692;DHT22;52411;52.716;6.696;2023-03-01T13:09:10;7.50;99.90
65692;DHT22;52411;52.716;6.696;2023-03-01T13:11:42;7.50;99.90
65692;DHT22;52411;52.716;6.696;2023-03-01T13:16:46;7.50;99.90
65692;DHT22;52411;52.716;6.696;2023-03-01T13:19:22;7.50;98.80
65692;DHT22;52411;52.716;6.696;2023-03-01T13:21:49;7.40;97.60
65692;DHT22;52411;52.716;6.696;2023-03-01T13:24:41;7.50;99.90
65692;DHT22;52411;52.716;6.696;2023-03-01T13:37:31;7.50;98.10
65692;DHT22;52411;52.716;6.696;2023-03-01T13:40:00;7.60;99.90
65692;DHT22;52411;52.716;6.696;2023-03-01T13:42:39;7.60;99.90
65692;DHT22;52411;52.716;6.696;2023-03-01T13:45:20;7.70;99.90
65692;DHT22;52411;52.716;6.696;2023-03-01T13:47:48;7.70;99.90
65692;DHT22;52411;52.716;6.696;2023-03-01T13:50:25;7.70;99.90
65692;DHT22;52411;52.716;6.696;2023-03-01T13:52:56;7.60;99.90
65692;DHT22;52411;52.716;6.696;2023-03-01T13:55:40;7.60;99.90
65692;DHT22;52411;52.716;6.696;2023-03-01T13:58:25;7.60;96.50
65692;DHT22;52411;52.716;6.696;2023-03-01T14:01:06;7.50;98.90
65692;DHT22;52411;52.716;6.696;2023-03-01T14:03:33;7.60;98.90
65692;DHT22;52411;52.716;6.696;2023-03-01T14:06:14;7.60;99.90
65692;DHT22;52411;52.716;6.696;2023-03-01T14:08:42;7.60;97.80
65692;DHT22;52411;52.716;6.696;2023-03-01T14:19:29;7.70;98.80
65692;DHT22;52411;52.716;6.696;2023-03-01T14:24:46;7.80;99.70
65692;DHT22;52411;52.716;6.696;2023-03-01T14:27:12;7.80;99.00
65692;DHT22;52411;52.716;6.696;2023-03-01T14:29:39;7.90;99.90
65692;DHT22;52411;52.716;6.696;2023-03-01T14:32:17;7.80;98.50
65692;DHT22;52411;52.716;6.696;2023-03-01T14:34:46;7.80;99.60
65692;DHT22;52411;52.716;6.696;2023-03-01T14:37:26;7.80;99.30
65692;DHT22;52411;52.716;6.696;2023-03-01T14:39:53;7.80;99.40
65692;DHT22;52411;52.716;6.696;2023-03-01T14:42:21;8.00;99.90
65692;DHT22;52411;52.716;6.696;2023-03-01T14:44:52;7.90;99.90
65692;DHT22;52411;52.716;6.696;2023-03-01T14:50:06;8.10;99.50
65692;DHT22;52411;52.716;6.696;2023-03-01T14:52:41;8.10;99.90
65692;DHT22;52411;52.716;6.696;2023-03-01T14:55:19;8.00;99.10
65692;DHT22;52411;52.716;6.696;2023-03-01T14:57:48;8.00;97.30
65692;DHT22;52411;52.716;6.696;2023-03-01T15:00:19;8.00;99.90
65692;DHT22;52411;52.716;6.696;2023-03-01T15:02:47;7.90;99.90
65692;DHT22;52411;52.716;6.696;2023-03-01T15:05:14;7.90;99.90
65692;DHT22;52411;52.716;6.696;2023-03-01T15:07:42;7.80;99.90
65692;DHT22;52411;52.716;6.696;2023-03-01T15:10:26;7.80;99.90
65692;DHT22;52411;52.716;6.696;2023-03-01T15:12:53;7.90;99.90
65692;DHT22;52411;52.716;6.696;2023-03-01T15:18:00;7.90;99.90
65692;DHT22;52411;52.716;6.696;2023-03-01T15:20:27;7.90;99.60
65692;DHT22;52411;52.716;6.696;2023-03-01T15:22:55;7.90;98.80
65692;DHT22;52411;52.716;6.696;2023-03-01T15:25:24;7.90;99.70
65692;DHT22;52411;52.716;6.696;2023-03-01T15:27:52;8.00;99.90
65692;DHT22;52411;52.716;6.696;2023-03-01T15:30:28;8.10;99.00
65692;DHT22;52411;52.716;6.696;2023-03-01T15:33:18;8.20;99.90
65692;DHT22;52411;52.716;6.696;2023-03-01T15:35:46;8.20;99.20
65692;DHT22;52411;52.716;6.696;2023-03-01T15:41:03;8.50;99.80
65692;DHT22;52411;52.716;6.696;2023-03-01T15:46:03;8.80;99.20
65692;DHT22;52411;52.716;6.696;2023-03-01T15:48:29;9.00;99.90
65692;DHT22;52411;52.716;6.696;2023-03-01T15:50:57;9.00;99.90
65692;DHT22;52411;52.716;6.696;2023-03-01T15:53:24;9.00;99.40
65692;DHT22;52411;52.716;6.696;2023-03-01T15:55:50;8.90;99.60
65692;DHT22;52411;52.716;6.696;2023-03-01T15:58:17;8.80;99.40
65692;DHT22;52411;52.716;6.696;2023-03-01T16:00:44;8.60;99.90
65692;DHT22;52411;52.716;6.696;2023-03-01T16:03:11;8.60;99.90
65692;DHT22;52411;52.716;6.696;2023-03-01T16:05:37;8.60;99.90
65692;DHT22;52411;52.716;6.696;2023-03-01T16:08:04;8.60;99.90
65692;DHT22;52411;52.716;6.696;2023-03-01T16:10:35;8.50;99.90
65692;DHT22;52411;52.716;6.696;2023-03-01T16:13:00;8.40;99.90
65692;DHT22;52411;52.716;6.696;2023-03-01T16:15:31;8.30;99.90
65692;DHT22;52411;52.716;6.696;2023-03-01T16:17:57;8.20;99.90
65692;DHT22;52411;52.716;6.696;2023-03-01T16:20:27;8.30;99.90
65692;DHT22;52411;52.716;6.696;2023-03-01T16:22:53;8.40;99.90
65692;DHT22;52411;52.716;6.696;2023-03-01T16:25:20;8.50;99.80
65692;DHT22;52411;52.716;6.696;2023-03-01T16:27:48;8.70;99.90
65692;DHT22;52411;52.716;6.696;2023-03-01T16:30:15;9.00;99.90
65692;DHT22;52411;52.716;6.696;2023-03-01T16:32:43;9.30;99.90
65692;DHT22;52411;52.716;6.696;2023-03-01T16:35:11;9.50;99.90
65692;DHT22;52411;52.716;6.696;2023-03-01T16:37:37;9.70;99.70
65692;DHT22;52411;52.716;6.696;2023-03-01T16:40:04;9.70;99.90
65692;DHT22;52411;52.716;6.696;2023-03-01T16:42:34;9.70;99.50
65692;DHT22;52411;52.716;6.696;2023-03-01T16:44:59;9.60;99.80
65692;DHT22;52411;52.716;6.696;2023-03-01T16:47:27;9.60;99.90
65692;DHT22;52411;52.716;6.696;2023-03-01T16:49:53;9.50;99.10
65692;DHT22;52411;52.716;6.696;2023-03-01T16:52:20;9.40;99.90
65692;DHT22;52411;52.716;6.696;2023-03-01T16:54:46;9.20;99.90
65692;DHT22;52411;52.716;6.696;2023-03-01T16:57:11;8.90;99.90
65692;DHT22;52411;52.716;6.696;2023-03-01T16:59:37;8.70;99.90
65692;DHT22;52411;52.716;6.696;2023-03-01T17:02:04;8.40;99.90
65692;DHT22;52411;52.716;6.696;2023-03-01T17:04:31;8.00;99.90
65692;DHT22;52411;52.716;6.696;2023-03-01T17:06:56;7.60;99.90
65692;DHT22;52411;52.716;6.696;2023-03-01T17:09:22;7.10;99.90
65692;DHT22;52411;52.716;6.696;2023-03-01T17:11:48;6.60;99.90
65692;DHT22;52411;52.716;6.696;2023-03-01T17:14:15;6.20;99.90
65692;DHT22;52411;52.716;6.696;2023-03-01T17:16:41;5.70;99.90
65692;DHT22;52411;52.716;6.696;2023-03-01T17:19:07;5.50;99.90
65692;DHT22;52411;52.716;6.696;2023-03-01T17:21:33;5.30;99.90
65692;DHT22;52411;52.716;6.696;2023-03-01T17:23:59;5.20;99.90
65692;DHT22;52411;52.716;6.696;2023-03-01T17:26:25;5.10;99.90
65692;DHT22;52411;52.716;6.696;2023-03-01T17:28:51;4.80;99.90
65692;DHT22;52411;52.716;6.696;2023-03-01T17:31:18;4.70;99.90
65692;DHT22;52411;52.716;6.696;2023-03-01T17:33:44;4.60;99.90
65692;DHT22;52411;52.716;6.696;2023-03-01T17:36:10;4.50;99.90
65692;DHT22;52411;52.716;6.696;2023-03-01T17:38:36;4.40;99.90
65692;DHT22;52411;52.716;6.696;2023-03-01T17:41:02;4.30;99.90
65692;DHT22;52411;52.716;6.696;2023-03-01T17:43:28;4.30;99.90
65692;DHT22;52411;52.716;6.696;2023-03-01T17:45:55;4.10;99.90